Airport Name : Corpus Christi Intl

Other Name : Corpus Christi

ICAO : KCRP

IATA : CRP

FAA : CRP

Latitude : 27.770361

Longitude : -97.501222

Country : United States

Local Date and Time : 28 Feb 2021 16:18

 

TAF (Terminal Aerodrome Forecast)

KCRP 282155Z 2822/0118 15018G24KT P6SM SCT015 BKN050 OVC200 TEMPO 2822/0102 BKN015 FM010200 13011KT P6SM OVC008 FM010800 11006KT 4SM BR VCSH OVC005 TEMPO 0110/0114 2SM -RA BR OVC003 FM011400 02011KT 5SM -SHRA BR OVC006

 

METAR (METeorological Aerodrome Report)

KCRP 282151Z 15018G25KT 10SM FEW010 BKN014 BKN060 OVC250 26/21 A2977 RMK AO2 PK WND 15026/2121 SLP081 T02610211 $

KCRP 282143Z 14021KT 10SM BKN014 BKN060 OVC250 26/21 A2977 RMK AO2 PK WND 15026/2121 T02610211 $

KCRP 282124Z 14019KT 10SM BKN017 BKN060 BKN200 OVC250 27/22 A2977 RMK AO2 PK WND 15026/2121 T02670217 $

KCRP 282051Z 14020KT 10SM FEW011 SCT019 BKN060 BKN200 OVC250 27/21 A2978 RMK AO2 PK WND 15029/2009 SLP083 T02720211 56031 $

KCRP 281951Z 15019G23KT 10SM FEW008 FEW025 SCT032 BKN200 BKN250 28/21 A2980 RMK AO2 PK WND 15026/1901 SLP090 T02830211 $

KCRP 281851Z 15020G26KT 10SM SCT021 BKN030 BKN200 28/21 A2984 RMK AO2 PK WND 16026/1843 SLP102 T02780211 $

KCRP 281846Z 16019G26KT 10SM SCT021 BKN030 27/21 A2984 RMK AO2 PK WND 16026/1843 $

To Charter a Jet Click here.